createdAt,value
2023-05-09T00:00:20.402Z,101041.63
2023-05-09T00:02:47.751Z,101043.22
2023-05-09T00:05:15.177Z,101047.97
2023-05-09T00:07:41.864Z,101041.81
2023-05-09T00:10:08.662Z,101038.53
2023-05-09T00:12:35.070Z,101030.75
2023-05-09T00:15:01.448Z,101028.72
2023-05-09T00:17:28.569Z,101031.00
2023-05-09T00:19:55.391Z,101030.09
2023-05-09T00:22:21.784Z,101025.44
2023-05-09T00:24:48.714Z,101016.44
2023-05-09T00:27:16.172Z,101018.06
2023-05-09T00:29:42.985Z,101015.78
2023-05-09T00:32:09.944Z,101008.72
2023-05-09T00:34:36.534Z,101005.50
2023-05-09T00:37:03.119Z,101006.94
2023-05-09T00:39:29.566Z,101004.50
2023-05-09T00:41:56.455Z,101006.56
2023-05-09T00:44:22.823Z,101006.31
2023-05-09T00:46:49.286Z,101006.38
2023-05-09T00:49:15.725Z,101006.13
2023-05-09T00:51:42.185Z,100995.78
2023-05-09T00:54:09.308Z,100995.94
2023-05-09T00:56:35.918Z,100993.44
2023-05-09T00:59:02.561Z,100982.09
2023-05-09T01:01:29.060Z,100977.34
2023-05-09T01:03:55.786Z,100964.91
2023-05-09T01:06:23.027Z,100963.59
2023-05-09T01:09:08.834Z,100963.41
2023-05-09T01:11:58.514Z,100960.94
2023-05-09T01:14:32.436Z,100970.81
2023-05-09T01:17:01.800Z,100959.47
2023-05-09T01:19:46.588Z,100952.81
2023-05-09T01:22:14.706Z,100950.84
2023-05-09T01:25:15.103Z,100943.63
2023-05-09T01:28:06.698Z,100950.19
2023-05-09T01:30:34.677Z,100952.59
2023-05-09T01:33:06.442Z,100944.34
2023-05-09T01:35:33.504Z,100939.59
2023-05-09T01:38:00.265Z,100934.31
2023-05-09T01:40:31.263Z,100938.09
2023-05-09T01:43:06.548Z,100938.25
2023-05-09T01:45:33.566Z,100939.44
2023-05-09T01:48:00.608Z,100936.28
2023-05-09T01:50:29.380Z,100937.53
2023-05-09T01:52:56.660Z,100932.66
2023-05-09T01:55:27.724Z,100922.22
2023-05-09T01:57:54.582Z,100924.41
2023-05-09T02:00:22.245Z,100915.41
2023-05-09T02:02:49.392Z,100912.25
2023-05-09T02:05:17.331Z,100914.69
2023-05-09T02:07:45.770Z,100914.25
2023-05-09T02:10:12.170Z,100912.50
2023-05-09T02:12:38.998Z,100920.41
2023-05-09T02:15:06.455Z,100916.59
2023-05-09T02:17:32.919Z,100912.34
2023-05-09T02:19:59.465Z,100912.88
2023-05-09T02:22:25.966Z,100914.16
2023-05-09T02:24:52.399Z,100919.91
2023-05-09T02:27:18.892Z,100910.75
2023-05-09T02:29:51.269Z,100911.47
2023-05-09T02:32:22.510Z,100915.03
2023-05-09T02:34:51.168Z,100910.03
2023-05-09T02:37:18.308Z,100914.06
2023-05-09T02:39:45.055Z,100905.44
2023-05-09T02:42:13.465Z,100908.22
2023-05-09T02:44:39.886Z,100905.38
2023-05-09T02:47:07.295Z,100908.94
2023-05-09T02:49:34.167Z,100910.19
2023-05-09T02:52:00.718Z,100917.38
2023-05-09T02:54:27.166Z,100914.59
2023-05-09T02:56:53.593Z,100907.69
2023-05-09T02:59:20.273Z,100909.41
2023-05-09T03:01:46.837Z,100905.00
2023-05-09T03:04:13.406Z,100903.66
2023-05-09T03:06:39.822Z,100897.78
2023-05-09T03:09:07.012Z,100894.38
2023-05-09T03:11:33.700Z,100901.34
2023-05-09T03:14:00.182Z,100897.91
2023-05-09T03:16:26.664Z,100898.63
2023-05-09T03:18:53.101Z,100889.34
2023-05-09T03:21:19.487Z,100895.19
2023-05-09T03:23:46.101Z,100902.22
2023-05-09T03:26:12.468Z,100885.88
2023-05-09T03:28:38.910Z,100894.50
2023-05-09T03:31:06.088Z,100883.09
2023-05-09T03:33:32.475Z,100880.66
2023-05-09T03:35:58.841Z,100879.03
2023-05-09T03:38:25.193Z,100879.03
2023-05-09T03:40:53.462Z,100882.47
2023-05-09T03:43:19.841Z,100873.59
2023-05-09T03:45:46.347Z,100873.00
2023-05-09T03:48:12.860Z,100864.72
2023-05-09T03:50:39.286Z,100864.00
2023-05-09T03:53:06.460Z,100854.13
2023-05-09T03:55:32.833Z,100869.16
2023-05-09T03:57:59.207Z,100867.41
2023-05-09T04:00:28.354Z,100864.88
2023-05-09T04:02:54.800Z,100855.38
2023-05-09T04:05:21.355Z,100862.66
2023-05-09T04:07:47.771Z,100860.22
2023-05-09T04:10:14.176Z,100864.16
2023-05-09T04:12:40.668Z,100865.81
2023-05-09T04:15:07.759Z,100862.28
2023-05-09T04:17:34.231Z,100864.63
2023-05-09T04:20:01.137Z,100861.47
2023-05-09T04:22:27.540Z,100861.94
2023-05-09T04:24:54.131Z,100854.44
2023-05-09T04:27:20.541Z,100858.69
2023-05-09T04:29:46.945Z,100852.47
2023-05-09T04:32:13.368Z,100854.28
2023-05-09T04:34:40.053Z,100844.38
2023-05-09T04:37:06.482Z,100836.47
2023-05-09T04:39:32.871Z,100842.75
2023-05-09T04:41:59.406Z,100842.41
2023-05-09T04:44:26.699Z,100845.41
2023-05-09T04:46:55.032Z,100837.25
2023-05-09T04:49:21.423Z,100833.28
2023-05-09T04:51:47.787Z,100837.13
2023-05-09T04:54:14.228Z,100834.44
2023-05-09T04:56:40.872Z,100828.47
2023-05-09T04:59:07.461Z,100827.34
2023-05-09T05:01:33.862Z,100829.56
2023-05-09T05:04:00.344Z,100825.59
2023-05-09T05:06:26.710Z,100820.88
2023-05-09T05:08:53.182Z,100812.72
2023-05-09T05:11:20.433Z,100815.59
2023-05-09T05:13:46.873Z,100810.38
2023-05-09T05:16:13.279Z,100809.47
2023-05-09T05:18:39.711Z,100810.78
2023-05-09T05:21:06.153Z,100811.34
2023-05-09T05:23:32.594Z,100809.09
2023-05-09T05:25:58.938Z,100803.22
2023-05-09T05:28:25.357Z,100802.97
2023-05-09T05:30:51.752Z,100804.59
2023-05-09T05:33:18.129Z,100806.41
2023-05-09T05:35:44.492Z,100795.13
2023-05-09T05:38:10.885Z,100798.38
2023-05-09T05:40:37.256Z,100803.13
2023-05-09T05:43:03.687Z,100797.09
2023-05-09T05:45:30.922Z,100791.97
2023-05-09T05:47:57.824Z,100790.72
2023-05-09T05:50:24.297Z,100794.94
2023-05-09T05:52:50.912Z,100789.53
2023-05-09T05:55:17.521Z,100783.78
2023-05-09T05:57:43.991Z,100783.63
2023-05-09T06:00:11.948Z,100777.22
2023-05-09T06:02:38.730Z,100783.50
2023-05-09T06:05:07.034Z,100784.59
2023-05-09T06:07:33.391Z,100772.63
2023-05-09T06:09:59.775Z,100771.13
2023-05-09T06:12:27.888Z,100767.03
2023-05-09T06:14:54.484Z,100766.44
2023-05-09T06:17:21.100Z,100766.03
2023-05-09T06:19:47.559Z,100763.41
2023-05-09T06:22:13.922Z,100754.78
2023-05-09T06:24:40.319Z,100759.78
2023-05-09T06:27:06.716Z,100759.94
2023-05-09T06:29:33.109Z,100765.53
2023-05-09T06:31:59.809Z,100759.75
2023-05-09T06:34:26.288Z,100750.16
2023-05-09T06:36:52.664Z,100748.53
2023-05-09T06:39:19.126Z,100741.63
2023-05-09T06:41:45.739Z,100735.91
2023-05-09T06:44:12.105Z,100733.63
2023-05-09T06:46:38.496Z,100732.00
2023-05-09T06:49:06.044Z,100729.44
2023-05-09T06:51:32.478Z,100721.44
2023-05-09T06:53:58.835Z,100717.78
2023-05-09T06:56:26.850Z,100714.72
2023-05-09T06:58:53.438Z,100710.91
2023-05-09T07:01:19.892Z,100705.91
2023-05-09T07:03:47.447Z,100704.91
2023-05-09T07:06:13.845Z,100701.69
2023-05-09T07:08:40.207Z,100702.53
2023-05-09T07:11:06.627Z,100703.47
2023-05-09T07:13:32.999Z,100694.53
2023-05-09T07:15:59.393Z,100697.22
2023-05-09T07:18:25.783Z,100688.16
2023-05-09T07:20:52.251Z,100692.34
2023-05-09T07:23:18.776Z,100681.75
2023-05-09T07:25:45.450Z,100683.66
2023-05-09T07:28:12.682Z,100675.41
2023-05-09T07:30:39.103Z,100663.94
2023-05-09T07:33:06.581Z,100663.69
2023-05-09T07:35:33.113Z,100653.53
2023-05-09T07:37:59.497Z,100654.25
2023-05-09T07:40:26.064Z,100638.78
2023-05-09T07:42:54.981Z,100638.00
2023-05-09T07:45:23.780Z,100645.53
2023-05-09T07:47:50.777Z,100638.47
2023-05-09T07:50:17.326Z,100636.47
2023-05-09T07:52:43.753Z,100636.47
2023-05-09T07:55:10.395Z,100633.44
2023-05-09T07:57:36.764Z,100635.03
2023-05-09T08:00:03.475Z,100625.75
2023-05-09T08:02:29.938Z,100622.50
2023-05-09T08:04:56.398Z,100611.84
2023-05-09T08:07:22.766Z,100620.28
2023-05-09T08:09:49.172Z,100601.41
2023-05-09T08:12:15.566Z,100605.50
2023-05-09T08:14:42.004Z,100602.06
2023-05-09T08:17:08.396Z,100598.44
2023-05-09T08:19:34.767Z,100591.63
2023-05-09T08:22:01.359Z,100585.72
2023-05-09T08:24:27.748Z,100582.72
2023-05-09T08:26:54.121Z,100586.13
2023-05-09T08:29:20.493Z,100587.63
2023-05-09T08:31:46.915Z,100582.59
2023-05-09T08:34:13.374Z,100587.25
2023-05-09T08:36:40.908Z,100581.88
2023-05-09T08:39:07.319Z,100582.63
2023-05-09T08:41:35.923Z,100590.41
2023-05-09T08:44:03.138Z,100581.53
2023-05-09T08:46:34.260Z,100582.97
2023-05-09T08:49:00.946Z,100576.22
2023-05-09T08:51:27.655Z,100577.50
2023-05-09T08:53:54.118Z,100572.88
2023-05-09T08:56:21.401Z,100576.22
2023-05-09T08:58:47.852Z,100573.50
2023-05-09T09:01:14.409Z,100571.59
2023-05-09T09:03:47.454Z,100571.41
2023-05-09T09:06:14.330Z,100563.56
2023-05-09T09:08:40.928Z,100565.41
2023-05-09T09:11:07.720Z,100550.75
2023-05-09T09:13:37.408Z,100546.84
2023-05-09T09:16:04.000Z,100545.38
2023-05-09T09:18:31.270Z,100545.63
2023-05-09T09:21:06.172Z,100544.09
2023-05-09T09:23:33.188Z,100545.19
2023-05-09T09:26:01.678Z,100540.22
2023-05-09T09:28:28.350Z,100533.03
2023-05-09T09:30:54.783Z,100543.78
2023-05-09T09:33:22.428Z,100517.50
2023-05-09T09:35:50.867Z,100517.72
2023-05-09T09:38:19.357Z,100519.28
2023-05-09T09:40:56.314Z,100508.69
2023-05-09T09:43:30.062Z,100513.25
2023-05-09T09:45:57.618Z,100499.03
2023-05-09T09:48:25.660Z,100496.38
2023-05-09T09:50:54.636Z,100496.13
2023-05-09T09:53:21.106Z,100480.78
2023-05-09T09:55:51.887Z,100484.81
2023-05-09T09:58:20.481Z,100485.00
2023-05-09T10:00:46.947Z,100483.19
2023-05-09T10:03:17.405Z,100478.50
2023-05-09T10:05:43.833Z,100474.75
2023-05-09T10:08:10.666Z,100464.09
2023-05-09T10:10:37.649Z,100473.06
2023-05-09T10:13:09.965Z,100472.25
2023-05-09T10:15:52.426Z,100468.19
2023-05-09T10:18:25.313Z,100463.19
2023-05-09T10:20:52.660Z,100460.34
2023-05-09T10:23:20.026Z,100456.66
2023-05-09T10:25:58.541Z,100454.59
2023-05-09T10:28:31.516Z,100448.06
2023-05-09T10:31:22.870Z,100436.25
2023-05-09T10:33:50.538Z,100434.00
2023-05-09T10:36:26.537Z,100423.69
2023-05-09T10:38:54.606Z,100423.34
2023-05-09T10:41:25.507Z,100420.41
2023-05-09T10:43:52.067Z,100416.53
2023-05-09T10:46:18.686Z,100420.59
2023-05-09T10:48:45.409Z,100412.19
2023-05-09T10:51:12.549Z,100414.09
2023-05-09T10:53:45.866Z,100407.47
2023-05-09T10:56:29.258Z,100419.38
2023-05-09T10:58:56.331Z,100411.19
2023-05-09T11:01:34.999Z,100405.81
2023-05-09T11:04:02.292Z,100397.28
2023-05-09T11:06:45.965Z,100392.50
2023-05-09T11:09:29.125Z,100397.81
2023-05-09T11:12:01.674Z,100388.34
2023-05-09T11:14:37.151Z,100384.78
2023-05-09T11:17:04.526Z,100373.25
2023-05-09T11:19:44.005Z,100375.66
2023-05-09T11:22:21.738Z,100366.50
2023-05-09T11:24:53.882Z,100368.81
2023-05-09T11:27:21.801Z,100366.88
2023-05-09T11:29:58.943Z,100354.97
2023-05-09T11:32:31.700Z,100360.94
2023-05-09T11:35:19.393Z,100355.63
2023-05-09T11:37:46.994Z,100343.59
2023-05-09T11:40:14.627Z,100344.41
2023-05-09T11:42:46.715Z,100333.50
2023-05-09T11:45:13.760Z,100336.50
2023-05-09T11:47:41.156Z,100331.53
2023-05-09T11:50:12.196Z,100321.81
2023-05-09T11:52:39.173Z,100314.00
2023-05-09T11:55:08.528Z,100315.56
2023-05-09T11:57:39.904Z,100315.06
2023-05-09T12:00:07.430Z,100302.84
2023-05-09T12:02:34.844Z,100310.50
2023-05-09T12:05:11.452Z,100303.88
2023-05-09T12:07:39.359Z,100300.13
2023-05-09T12:10:07.349Z,100293.78
2023-05-09T12:12:35.356Z,100285.53
2023-05-09T12:15:07.676Z,100276.84
2023-05-09T12:17:35.276Z,100276.47
2023-05-09T12:20:04.248Z,100263.13
2023-05-09T12:22:30.732Z,100269.88
2023-05-09T12:24:57.232Z,100261.16
2023-05-09T12:27:24.110Z,100253.97
2023-05-09T12:29:50.902Z,100259.00
2023-05-09T12:32:18.283Z,100261.00
2023-05-09T12:34:45.353Z,100255.63
2023-05-09T12:37:17.342Z,100254.72
2023-05-09T12:40:02.274Z,100249.41
2023-05-09T12:42:29.228Z,100245.94
2023-05-09T12:44:56.587Z,100238.41
2023-05-09T12:47:26.853Z,100245.50
2023-05-09T12:49:53.307Z,100244.88
2023-05-09T12:52:20.461Z,100251.59
2023-05-09T12:54:48.369Z,100250.88
2023-05-09T12:57:28.812Z,100251.06
2023-05-09T13:00:00.284Z,100259.81
2023-05-09T13:02:30.414Z,100270.44
2023-05-09T13:05:10.957Z,100267.03
2023-05-09T13:07:41.088Z,100254.34
2023-05-09T13:10:14.323Z,100244.84
2023-05-09T13:12:45.011Z,100246.53
2023-05-09T13:15:12.058Z,100240.22
2023-05-09T13:17:38.671Z,100231.56
2023-05-09T13:20:05.686Z,100218.22
2023-05-09T13:22:32.433Z,100212.56
2023-05-09T13:24:58.930Z,100201.66
2023-05-09T13:27:25.590Z,100204.97
2023-05-09T13:29:51.972Z,100205.75
2023-05-09T13:32:18.350Z,100194.78
2023-05-09T13:34:44.745Z,100194.69
2023-05-09T13:37:11.590Z,100195.22
2023-05-09T13:39:38.005Z,100189.72
2023-05-09T13:42:04.362Z,100187.88
2023-05-09T13:44:30.850Z,100183.28
2023-05-09T13:46:58.631Z,100195.69
2023-05-09T13:49:25.016Z,100186.81
2023-05-09T13:51:51.430Z,100186.59
2023-05-09T13:54:19.594Z,100190.88
2023-05-09T13:56:46.028Z,100185.03
2023-05-09T13:59:12.499Z,100187.94
2023-05-09T14:01:38.904Z,100191.66
2023-05-09T14:04:05.369Z,100203.84
2023-05-09T14:06:33.079Z,100189.56
2023-05-09T14:08:59.492Z,100187.06
2023-05-09T14:11:26.091Z,100186.47
2023-05-09T14:13:52.760Z,100178.09
2023-05-09T14:16:20.021Z,100177.84
2023-05-09T14:18:46.539Z,100173.34
2023-05-09T14:21:13.128Z,100168.19
2023-05-09T14:23:39.501Z,100171.34
2023-05-09T14:26:05.926Z,100171.22
2023-05-09T14:28:32.799Z,100167.88
2023-05-09T14:30:59.254Z,100171.69
2023-05-09T14:33:26.259Z,100170.47
2023-05-09T14:35:54.061Z,100163.22
2023-05-09T14:38:21.205Z,100159.91
2023-05-09T14:40:47.631Z,100155.16
2023-05-09T14:43:14.018Z,100151.34
2023-05-09T14:45:40.553Z,100142.66
2023-05-09T14:48:07.391Z,100150.78
2023-05-09T14:50:33.884Z,100149.47
2023-05-09T14:53:00.951Z,100149.03
2023-05-09T14:55:27.855Z,100153.09
2023-05-09T14:57:54.410Z,100154.16
2023-05-09T15:00:22.675Z,100156.91
2023-05-09T15:02:49.579Z,100157.69
2023-05-09T15:05:16.681Z,100160.56
2023-05-09T15:07:43.316Z,100158.00
2023-05-09T15:10:10.182Z,100171.56
2023-05-09T15:12:36.554Z,100160.41
2023-05-09T15:15:16.863Z,100158.63
2023-05-09T15:17:44.451Z,100149.53
2023-05-09T15:20:18.163Z,100141.97
2023-05-09T15:22:46.571Z,100135.31
2023-05-09T15:25:13.055Z,100140.41
2023-05-09T15:27:40.035Z,100136.06
2023-05-09T15:30:07.307Z,100134.44
2023-05-09T15:32:34.633Z,100132.72
2023-05-09T15:35:01.124Z,100132.53
2023-05-09T15:37:27.497Z,100123.13
2023-05-09T15:39:53.888Z,100120.69
2023-05-09T15:42:20.339Z,100122.97
2023-05-09T15:44:47.197Z,100117.69
2023-05-09T15:47:13.789Z,100119.50
2023-05-09T15:49:40.338Z,100116.97
2023-05-09T15:52:07.811Z,100111.69
2023-05-09T15:54:34.814Z,100106.97
2023-05-09T15:57:01.308Z,100101.34
2023-05-09T15:59:27.756Z,100101.06
2023-05-09T16:01:54.867Z,100104.81
2023-05-09T16:04:21.966Z,100105.38
2023-05-09T16:06:48.854Z,100105.91
2023-05-09T16:09:15.305Z,100103.00
2023-05-09T16:11:42.100Z,100111.56
2023-05-09T16:14:11.377Z,100110.03
2023-05-09T16:16:38.812Z,100132.59
2023-05-09T16:19:09.632Z,100124.25
2023-05-09T16:21:37.723Z,100132.53
2023-05-09T16:24:04.787Z,100141.34
2023-05-09T16:26:31.282Z,100135.91
2023-05-09T16:28:57.762Z,100156.28
2023-05-09T16:31:27.231Z,100165.00
2023-05-09T16:33:54.151Z,100162.91
2023-05-09T16:36:20.960Z,100164.06
2023-05-09T16:38:47.410Z,100150.09
2023-05-09T16:41:13.791Z,100147.84
2023-05-09T16:43:40.481Z,100136.38
2023-05-09T16:46:07.178Z,100139.50
2023-05-09T16:48:33.615Z,100144.16
2023-05-09T16:50:59.990Z,100153.72
2023-05-09T16:53:27.794Z,100159.66
2023-05-09T16:55:54.668Z,100168.78
2023-05-09T16:58:21.156Z,100154.91
2023-05-09T17:00:47.730Z,100140.25
2023-05-09T17:03:14.208Z,100134.78
2023-05-09T17:05:40.735Z,100150.06
2023-05-09T17:08:07.611Z,100143.66
2023-05-09T17:10:35.791Z,100143.09
2023-05-09T17:13:08.413Z,100140.97
2023-05-09T17:15:34.842Z,100143.03
2023-05-09T17:18:01.439Z,100133.84
2023-05-09T17:20:28.864Z,100131.91
2023-05-09T17:22:56.298Z,100139.19
2023-05-09T17:25:22.992Z,100135.81
2023-05-09T17:27:49.368Z,100133.75
2023-05-09T17:30:15.982Z,100130.72
2023-05-09T17:32:42.696Z,100112.66
2023-05-09T17:35:09.482Z,100121.84
2023-05-09T17:37:36.170Z,100125.50
2023-05-09T17:40:03.700Z,100119.88
2023-05-09T17:42:30.082Z,100120.22
2023-05-09T17:44:56.463Z,100125.59
2023-05-09T17:47:22.924Z,100122.06
2023-05-09T17:49:49.375Z,100115.28
2023-05-09T17:52:15.759Z,100107.44
2023-05-09T17:54:42.143Z,100119.34
2023-05-09T17:57:08.511Z,100127.13
2023-05-09T17:59:34.982Z,100117.66
2023-05-09T18:02:01.637Z,100111.94
2023-05-09T18:04:30.276Z,100110.38
2023-05-09T18:06:56.719Z,100105.63
2023-05-09T18:09:23.683Z,100105.13
2023-05-09T18:11:50.090Z,100106.78
2023-05-09T18:14:16.822Z,100109.69
2023-05-09T18:16:43.282Z,100099.28
2023-05-09T18:19:09.653Z,100096.41
2023-05-09T18:21:36.228Z,100096.00
2023-05-09T18:24:02.603Z,100093.72
2023-05-09T18:26:28.985Z,100096.47
2023-05-09T18:28:55.384Z,100093.84
2023-05-09T18:31:22.300Z,100094.38
2023-05-09T18:33:49.076Z,100097.97
2023-05-09T18:36:15.472Z,100089.41
2023-05-09T18:38:43.153Z,100092.84
2023-05-09T18:41:11.578Z,100094.38
2023-05-09T18:43:45.542Z,100090.84
2023-05-09T18:46:20.562Z,100092.72
2023-05-09T18:48:52.529Z,100092.38
2023-05-09T18:51:19.613Z,100086.66
2023-05-09T18:53:47.302Z,100089.28
2023-05-09T18:56:13.998Z,100082.41
2023-05-09T18:58:40.570Z,100072.00
2023-05-09T19:01:11.244Z,100088.94
2023-05-09T19:03:43.567Z,100085.00
2023-05-09T19:06:12.781Z,100081.59
2023-05-09T19:08:40.563Z,100082.41
2023-05-09T19:11:07.222Z,100086.31
2023-05-09T19:13:38.360Z,100076.16
2023-05-09T19:16:05.584Z,100084.94
2023-05-09T19:18:31.984Z,100079.66
2023-05-09T19:20:58.547Z,100080.31
2023-05-09T19:23:28.991Z,100081.47
2023-05-09T19:25:55.501Z,100074.19
2023-05-09T19:28:22.910Z,100075.38
2023-05-09T19:30:50.128Z,100076.91
2023-05-09T19:33:16.808Z,100076.66
2023-05-09T19:35:43.362Z,100072.53
2023-05-09T19:38:11.744Z,100074.19
2023-05-09T19:40:38.985Z,100069.78
2023-05-09T19:43:05.452Z,100072.06
2023-05-09T19:45:31.900Z,100069.06
2023-05-09T19:48:06.825Z,100067.75
2023-05-09T19:50:33.204Z,100071.69
2023-05-09T19:52:59.574Z,100063.84
2023-05-09T19:55:25.995Z,100060.66
2023-05-09T19:57:52.407Z,100059.66
2023-05-09T20:00:19.183Z,100063.09
2023-05-09T20:02:46.946Z,100071.09
2023-05-09T20:05:13.473Z,100083.81
2023-05-09T20:07:39.848Z,100064.34
2023-05-09T20:10:06.545Z,100058.91
2023-05-09T20:12:32.927Z,100068.81
2023-05-09T20:14:59.336Z,100060.66
2023-05-09T20:17:25.801Z,100067.28
2023-05-09T20:19:52.245Z,100067.88
2023-05-09T20:22:18.624Z,100069.75
2023-05-09T20:24:45.013Z,100062.66
2023-05-09T20:27:11.388Z,100060.72
2023-05-09T20:29:37.760Z,100064.41
2023-05-09T20:32:04.321Z,100061.94
2023-05-09T20:34:30.813Z,100060.53
2023-05-09T20:36:57.190Z,100057.00
2023-05-09T20:39:24.414Z,100065.84
2023-05-09T20:41:52.013Z,100064.78
2023-05-09T20:44:18.993Z,100053.56
2023-05-09T20:46:45.744Z,100046.44
2023-05-09T20:49:12.569Z,100047.09
2023-05-09T20:51:39.029Z,100045.78
2023-05-09T20:54:05.744Z,100046.34
2023-05-09T20:56:33.617Z,100047.03
2023-05-09T20:59:00.935Z,100042.06
2023-05-09T21:01:27.375Z,100042.19
2023-05-09T21:03:53.793Z,100040.66
2023-05-09T21:06:20.241Z,100044.28
2023-05-09T21:08:46.648Z,100041.72
2023-05-09T21:11:13.083Z,100032.97
2023-05-09T21:13:39.565Z,100032.47
2023-05-09T21:16:06.042Z,100032.47
2023-05-09T21:18:32.580Z,100035.69
2023-05-09T21:21:02.066Z,100030.34
2023-05-09T21:23:28.667Z,100041.03
2023-05-09T21:25:55.152Z,100029.66
2023-05-09T21:28:21.539Z,100024.81
2023-05-09T21:30:52.317Z,100033.94
2023-05-09T21:33:18.963Z,100036.38
2023-05-09T21:35:45.658Z,100044.09
2023-05-09T21:38:12.293Z,100034.66
2023-05-09T21:40:38.947Z,100028.72
2023-05-09T21:43:05.498Z,100032.63
2023-05-09T21:45:31.901Z,100031.00
2023-05-09T21:47:58.415Z,100026.03
2023-05-09T21:50:24.896Z,100020.06
2023-05-09T21:52:51.380Z,100020.13
2023-05-09T21:55:17.766Z,100013.84
2023-05-09T21:57:44.171Z,100020.06
2023-05-09T22:00:15.127Z,100023.31
2023-05-09T22:02:42.981Z,100017.97
2023-05-09T22:05:10.134Z,100019.25
2023-05-09T22:07:36.778Z,100017.53
2023-05-09T22:10:03.637Z,100019.63
2023-05-09T22:12:30.063Z,100016.31
2023-05-09T22:14:57.018Z,100015.31
2023-05-09T22:17:24.357Z,100013.53
2023-05-09T22:19:50.798Z,100013.88
2023-05-09T22:22:17.151Z,100023.31
2023-05-09T22:24:43.681Z,100019.34
2023-05-09T22:27:10.900Z,100035.41
2023-05-09T22:29:37.303Z,100032.44
2023-05-09T22:32:04.272Z,100040.59
2023-05-09T22:34:30.973Z,100038.19
2023-05-09T22:36:57.367Z,100038.56
2023-05-09T22:39:25.138Z,100028.50
2023-05-09T22:41:51.543Z,100035.13
2023-05-09T22:44:17.977Z,100035.03
2023-05-09T22:46:44.360Z,100034.56
2023-05-09T22:49:10.820Z,100032.63
2023-05-09T22:51:37.205Z,100029.19
2023-05-09T22:54:03.684Z,100027.50
2023-05-09T22:56:30.168Z,100032.69
2023-05-09T22:58:56.520Z,100023.00
2023-05-09T23:01:22.931Z,100020.84
2023-05-09T23:03:49.317Z,100025.34
2023-05-09T23:06:15.757Z,100015.84
2023-05-09T23:08:42.236Z,100023.34
2023-05-09T23:11:08.649Z,100023.66
2023-05-09T23:13:35.031Z,100024.50
2023-05-09T23:16:01.672Z,100018.81
2023-05-09T23:18:28.521Z,100017.66
2023-05-09T23:20:54.916Z,100023.06
2023-05-09T23:23:21.305Z,100020.81
2023-05-09T23:25:47.728Z,100018.59
2023-05-09T23:28:14.184Z,100018.22
2023-05-09T23:30:40.616Z,100021.22
2023-05-09T23:33:07.004Z,100012.56
2023-05-09T23:35:33.382Z,100008.88
2023-05-09T23:37:59.775Z,100010.94
2023-05-09T23:40:26.159Z,100004.63
2023-05-09T23:42:52.547Z,100004.25
2023-05-09T23:45:18.954Z,100001.16
2023-05-09T23:47:45.375Z,100013.78
2023-05-09T23:50:12.502Z,100015.84
2023-05-09T23:52:39.866Z,99998.94
2023-05-09T23:55:06.936Z,100001.47
2023-05-09T23:57:33.368Z,100005.59
2023-05-09T23:59:59.781Z,100005.78
